Tonic Sea — D5AZ8 — position and weather

sailwx.info

Track history (hours):
 
Tides and Currents Weather Stations Pressure Air Temp Water Temp Dewpoint Dewpoint Depression Visibility Wind Speed Wind Dir Waves Ship Positions

Tonic Sea

Last reported at 2014-Jul-29 21:28 UTC. Time now 2014-Jul-29 22:55 UTC.
Position N 34°40' E 030°03'.

Length 229 m; draft 8.1 m.

Type: Cargo ship. MMSI: 636015479.

Date/timePositionNaut miles runAvg speedWind from/ knotsBaromVisibWave heightAir tempDewpointWater temp
2014-Jul-29 21:28N 34°40' E 030°03'9 9.7
2014-Jul-29 20:33N 34°35' E 030°12'10 9.5
2014-Jul-29 19:33N 34°30' E 030°22'10 9.6
2014-Jul-29 18:33N 34°25' E 030°32'10 9.8
2014-Jul-29 17:33N 34°20' E 030°42'10 9.7
2014-Jul-29 16:33N 34°16' E 030°52'10 9.7
2014-Jul-29 15:33N 34°11' E 031°02'10 9.6
2014-Jul-29 14:33N 34°06' E 031°12'10 9.5
2014-Jul-29 13:33N 34°01' E 031°23'9 9.3
2014-Jul-29 12:33N 33°56' E 031°32'9 9.1
2014-Jul-29 11:33N 33°52' E 031°41'1110.6
2014-Jul-29 10:33N 33°47' E 031°53'10 9.7
2014-Jul-29 09:33N 33°42' E 032°03'9 8.8
2014-Jul-29 08:33N 33°37' E 032°12'9 9.0
2014-Jul-29 07:33N 33°33' E 032°21'9 9.3
2014-Jul-29 06:34N 33°28' E 032°31'10 9.8
2014-Jul-29 05:33N 33°23' E 032°41'10 9.8
2014-Jul-29 04:33N 33°18' E 032°51'1110.0
2014-Jul-29 03:27N 33°13' E 033°03'910.1
2014-Jul-29 02:33N 33°08' E 033°12'1010.2
2014-Jul-29 01:34N 33°03' E 033°22'10 9.9
2014-Jul-29 00:34N 32°59' E 033°33'11 9.8
2014-Jul-28 23:23N 32°53' E 033°45'9 9.8
2014-Jul-28 22:29N 32°48' E 033°54'1010.0
2014-Jul-28 21:28N 32°43' E 034°04'1110.1
2014-Jul-28 20:25N 32°38' E 034°15'1910.1
2014-Jul-28 18:33N 32°31' E 034°36'1010.0
2014-Jul-28 17:33N 32°29' E 034°48'4 3.7
2014-Jul-28 16:33N 32°28' E 034°52'0 0.0
2014-Jul-28 15:33N 32°28' E 034°52'0 0.0
2014-Jul-28 14:33N 32°28' E 034°52'0 0.0
2014-Jul-28 13:33N 32°28' E 034°52'0 0.0
2014-Jul-28 12:33N 32°28' E 034°52'0 0.0
2014-Jul-28 11:33N 32°28' E 034°52'0 0.0
2014-Jul-28 10:33N 32°28' E 034°52'0 0.0
2014-Jul-28 09:33N 32°28' E 034°52'0 0.0
2014-Jul-28 08:30N 32°28' E 034°52'0 0.0
2014-Jul-28 03:33N 32°28' E 034°52'0 0.0
2014-Jul-28 02:33N 32°28' E 034°52'0 0.0
2014-Jul-28 01:33N 32°28' E 034°52'0 0.0
2014-Jul-28 00:33N 32°28' E 034°52'0 0.0
2014-Jul-27 23:33N 32°28' E 034°52'0 0.0
2014-Jul-27 22:33N 32°28' E 034°52'0 0.0
2014-Jul-27 21:33N 32°28' E 034°52'0 0.0
2014-Jul-27 20:33N 32°28' E 034°52'0 0.0
2014-Jul-27 19:33N 32°28' E 034°52'0 0.0
2014-Jul-27 18:33N 32°28' E 034°52'0 0.0
2014-Jul-27 17:33N 32°28' E 034°52'0 0.0
2014-Jul-27 16:30N 32°28' E 034°52'0 0.0
2014-Jul-27 15:30N 32°28' E 034°52'0 0.0
2014-Jul-27 14:33N 32°28' E 034°52'0 0.0
2014-Jul-27 13:30N 32°28' E 034°52'0 0.0
2014-Jul-27 12:33N 32°28' E 034°52'0 0.0
2014-Jul-27 11:33N 32°28' E 034°52'0 0.0
2014-Jul-27 10:33N 32°28' E 034°52'0 0.0
2014-Jul-27 09:33N 32°28' E 034°52'0 0.0
2014-Jul-27 08:33N 32°28' E 034°52'0 0.0
2014-Jul-27 07:33N 32°28' E 034°52'0 0.0
2014-Jul-27 06:33N 32°28' E 034°52'0 0.0
2014-Jul-27 05:33N 32°28' E 034°52'0 0.0
2014-Jul-26 09:33N 32°28' E 034°52'0 0.0
2014-Jul-25 12:15N 32°28' E 034°52'0 0.0
2014-Jul-25 11:33N 32°28' E 034°52'0 0.0
2014-Jul-25 08:21N 32°28' E 034°52'0 0.0
2014-Jul-25 07:33N 32°28' E 034°52'0 0.0
2014-Jul-25 06:33N 32°28' E 034°52'0 0.0
2014-Jul-25 05:21N 32°28' E 034°52'0 0.0
2014-Jul-25 04:33N 32°28' E 034°52'1 0.8
2014-Jul-25 03:33N 32°29' E 034°52'1 0.7
2014-Jul-25 02:33N 32°30' E 034°51'0 0.0
2014-Jul-25 01:33N 32°30' E 034°51'0 0.0
2014-Jul-25 00:33N 32°30' E 034°51'0 0.0
2014-Jul-24 23:33N 32°30' E 034°51'0 0.0
2014-Jul-24 22:33N 32°30' E 034°51'0 0.0
2014-Jul-24 21:33N 32°30' E 034°51'0 0.0
2014-Jul-24 20:32N 32°30' E 034°51'0 0.0
2014-Jul-24 19:33N 32°30' E 034°51'0 0.0
2014-Jul-24 18:33N 32°30' E 034°51'0 0.0
2014-Jul-24 17:33N 32°29' E 034°51'0 0.0
2014-Jul-24 16:33N 32°29' E 034°51'0 0.0
2014-Jul-24 15:33N 32°29' E 034°51'2 1.6
2014-Jul-24 14:33N 32°30' E 034°50'4 4.3
2014-Jul-24 13:33N 32°30' E 034°44'7 7.5
2014-Jul-24 12:33N 32°31' E 034°36'1410.1
2014-Jul-24 11:08N 32°36' E 034°20'1012.4
2014-Jul-24 10:21N 32°42' E 034°10'3 3.2
2014-Jul-24 09:33N 32°43' E 034°08'1 1.0
2014-Jul-24 08:33N 32°43' E 034°06'1 0.9
2014-Jul-24 07:33N 32°42' E 034°05'1 0.9
2014-Jul-24 06:33N 32°42' E 034°04'1 0.8
2014-Jul-24 05:33N 32°41' E 034°04'1 0.7
2014-Jul-24 04:29N 32°41' E 034°03'1 0.6
2014-Jul-24 03:32N 32°40' E 034°03'0 0.4
2014-Jul-24 02:33N 32°40' E 034°03'0 0.3
2014-Jul-24 01:13N 32°39' E 034°02'0 0.2
2014-Jul-24 00:33N 32°39' E 034°02'0 0.0
2014-Jul-23 23:33N 32°39' E 034°02'0 0.1
2014-Jul-23 22:33N 32°39' E 034°02'0 0.3
2014-Jul-23 21:04N 32°40' E 034°02'0 0.3
2014-Jul-23 20:33N 32°40' E 034°02'0 0.4
2014-Jul-23 19:33N 32°40' E 034°02'0 0.5
2014-Jul-23 18:33N 32°41' E 034°02'1 0.7
2014-Jul-23 17:33N 32°41' E 034°01'1 0.5
2014-Jul-23 16:33N 32°42' E 034°01'4 3.6
2014-Jul-23 15:33N 32°39' E 034°03'5 4.5
2014-Jul-23 14:32N 32°35' E 034°06'1 0.9
2014-Jul-23 13:33N 32°35' E 034°05'1 0.9
2014-Jul-23 12:33N 32°36' E 034°04'1 0.9
2014-Jul-23 11:33N 32°37' E 034°03'1 0.9
2014-Jul-23 10:31N 32°37' E 034°02'1 0.9
2014-Jul-23 09:30N 32°37' E 034°01'1 0.9
2014-Jul-23 08:33N 32°36' E 034°00'1 0.8
2014-Jul-23 07:33N 32°36' E 033°60'1 0.6
2014-Jul-23 06:33N 32°35' E 033°59'1 0.5
2014-Jul-23 05:33N 32°35' E 033°59'0 0.4
2014-Jul-23 04:32N 32°34' E 033°59'0 0.2
2014-Jul-23 03:33N 32°34' E 033°59'0 0.2
2014-Jul-23 02:33N 32°34' E 033°59'0 0.2
2014-Jul-23 01:33N 32°34' E 033°59'0 0.3
2014-Jul-23 00:33N 32°35' E 033°59'0 0.3
2014-Jul-22 23:33N 32°35' E 033°59'0 0.3
2014-Jul-22 22:33N 32°35' E 033°59'0 0.5
2014-Jul-22 21:33N 32°36' E 033°59'1 0.6
2014-Jul-22 20:33N 32°36' E 033°59'1 0.5
2014-Jul-22 19:33N 32°37' E 033°59'1 0.6
2014-Jul-22 18:33N 32°37' E 033°59'1 0.7
2014-Jul-22 17:33N 32°38' E 033°59'1 0.6
2014-Jul-22 16:33N 32°39' E 033°59'1 0.9
2014-Jul-22 15:33N 32°39' E 033°60'9 8.8
2014-Jul-22 14:31N 32°39' E 034°10'1 0.7
2014-Jul-22 13:32N 32°39' E 034°10'7 0.5
2014-Jul-21 22:13N 32°37' E 034°01'0 0.3
2014-Jul-21 21:33N 32°37' E 034°01'  
Track history (hours):
 
Tides and Currents Weather Stations Pressure Air Temp Water Temp Dewpoint Dewpoint Depression Visibility Wind Speed Wind Dir Waves Ship Positions

Tonic Sea

Last reported at 2014-Jul-29 21:28 UTC. Time now 2014-Jul-29 22:55 UTC.
Position N 34°40' E 030°03'.

Length 229 m; draft 8.1 m.

Type: Cargo ship. MMSI: 636015479.

Date/timePositionNaut miles runAvg speedWind from/ knotsBaromVisibWave heightAir tempDewpointWater temp
2014-Jul-29 21:28N 34°40' E 030°03'9 9.7
2014-Jul-29 20:33N 34°35' E 030°12'10 9.5
2014-Jul-29 19:33N 34°30' E 030°22'10 9.6
2014-Jul-29 18:33N 34°25' E 030°32'10 9.8
2014-Jul-29 17:33N 34°20' E 030°42'10 9.7
2014-Jul-29 16:33N 34°16' E 030°52'10 9.7
2014-Jul-29 15:33N 34°11' E 031°02'10 9.6
2014-Jul-29 14:33N 34°06' E 031°12'10 9.5
2014-Jul-29 13:33N 34°01' E 031°23'9 9.3
2014-Jul-29 12:33N 33°56' E 031°32'9 9.1
2014-Jul-29 11:33N 33°52' E 031°41'1110.6
2014-Jul-29 10:33N 33°47' E 031°53'10 9.7
2014-Jul-29 09:33N 33°42' E 032°03'9 8.8
2014-Jul-29 08:33N 33°37' E 032°12'9 9.0
2014-Jul-29 07:33N 33°33' E 032°21'9 9.3
2014-Jul-29 06:34N 33°28' E 032°31'10 9.8
2014-Jul-29 05:33N 33°23' E 032°41'10 9.8
2014-Jul-29 04:33N 33°18' E 032°51'1110.0
2014-Jul-29 03:27N 33°13' E 033°03'910.1
2014-Jul-29 02:33N 33°08' E 033°12'1010.2
2014-Jul-29 01:34N 33°03' E 033°22'10 9.9
2014-Jul-29 00:34N 32°59' E 033°33'11 9.8
2014-Jul-28 23:23N 32°53' E 033°45'9 9.8
2014-Jul-28 22:29N 32°48' E 033°54'1010.0
2014-Jul-28 21:28N 32°43' E 034°04'1110.1
2014-Jul-28 20:25N 32°38' E 034°15'1910.1
2014-Jul-28 18:33N 32°31' E 034°36'1010.0
2014-Jul-28 17:33N 32°29' E 034°48'4 3.7
2014-Jul-28 16:33N 32°28' E 034°52'0 0.0
2014-Jul-28 15:33N 32°28' E 034°52'0 0.0
2014-Jul-28 14:33N 32°28' E 034°52'0 0.0
2014-Jul-28 13:33N 32°28' E 034°52'0 0.0
2014-Jul-28 12:33N 32°28' E 034°52'0 0.0
2014-Jul-28 11:33N 32°28' E 034°52'0 0.0
2014-Jul-28 10:33N 32°28' E 034°52'0 0.0
2014-Jul-28 09:33N 32°28' E 034°52'0 0.0
2014-Jul-28 08:30N 32°28' E 034°52'0 0.0
2014-Jul-28 03:33N 32°28' E 034°52'0 0.0
2014-Jul-28 02:33N 32°28' E 034°52'0 0.0
2014-Jul-28 01:33N 32°28' E 034°52'0 0.0
2014-Jul-28 00:33N 32°28' E 034°52'0 0.0
2014-Jul-27 23:33N 32°28' E 034°52'0 0.0
2014-Jul-27 22:33N 32°28' E 034°52'0 0.0
2014-Jul-27 21:33N 32°28' E 034°52'0 0.0
2014-Jul-27 20:33N 32°28' E 034°52'0 0.0
2014-Jul-27 19:33N 32°28' E 034°52'0 0.0
2014-Jul-27 18:33N 32°28' E 034°52'0 0.0
2014-Jul-27 17:33N 32°28' E 034°52'0 0.0
2014-Jul-27 16:30N 32°28' E 034°52'0 0.0
2014-Jul-27 15:30N 32°28' E 034°52'0 0.0
2014-Jul-27 14:33N 32°28' E 034°52'0 0.0
2014-Jul-27 13:30N 32°28' E 034°52'0 0.0
2014-Jul-27 12:33N 32°28' E 034°52'0 0.0
2014-Jul-27 11:33N 32°28' E 034°52'0 0.0
2014-Jul-27 10:33N 32°28' E 034°52'0 0.0
2014-Jul-27 09:33N 32°28' E 034°52'0 0.0
2014-Jul-27 08:33N 32°28' E 034°52'0 0.0
2014-Jul-27 07:33N 32°28' E 034°52'0 0.0
2014-Jul-27 06:33N 32°28' E 034°52'0 0.0
2014-Jul-27 05:33N 32°28' E 034°52'0 0.0
2014-Jul-26 09:33N 32°28' E 034°52'0 0.0
2014-Jul-25 12:15N 32°28' E 034°52'0 0.0
2014-Jul-25 11:33N 32°28' E 034°52'0 0.0
2014-Jul-25 08:21N 32°28' E 034°52'0 0.0
2014-Jul-25 07:33N 32°28' E 034°52'0 0.0
2014-Jul-25 06:33N 32°28' E 034°52'0 0.0
2014-Jul-25 05:21N 32°28' E 034°52'0 0.0
2014-Jul-25 04:33N 32°28' E 034°52'1 0.8
2014-Jul-25 03:33N 32°29' E 034°52'1 0.7
2014-Jul-25 02:33N 32°30' E 034°51'0 0.0
2014-Jul-25 01:33N 32°30' E 034°51'0 0.0
2014-Jul-25 00:33N 32°30' E 034°51'0 0.0
2014-Jul-24 23:33N 32°30' E 034°51'0 0.0
2014-Jul-24 22:33N 32°30' E 034°51'0 0.0
2014-Jul-24 21:33N 32°30' E 034°51'0 0.0
2014-Jul-24 20:32N 32°30' E 034°51'0 0.0
2014-Jul-24 19:33N 32°30' E 034°51'0 0.0
2014-Jul-24 18:33N 32°30' E 034°51'0 0.0
2014-Jul-24 17:33N 32°29' E 034°51'0 0.0
2014-Jul-24 16:33N 32°29' E 034°51'0 0.0
2014-Jul-24 15:33N 32°29' E 034°51'2 1.6
2014-Jul-24 14:33N 32°30' E 034°50'4 4.3
2014-Jul-24 13:33N 32°30' E 034°44'7 7.5
2014-Jul-24 12:33N 32°31' E 034°36'1410.1
2014-Jul-24 11:08N 32°36' E 034°20'1012.4
2014-Jul-24 10:21N 32°42' E 034°10'3 3.2
2014-Jul-24 09:33N 32°43' E 034°08'1 1.0
2014-Jul-24 08:33N 32°43' E 034°06'1 0.9
2014-Jul-24 07:33N 32°42' E 034°05'1 0.9
2014-Jul-24 06:33N 32°42' E 034°04'1 0.8
2014-Jul-24 05:33N 32°41' E 034°04'1 0.7
2014-Jul-24 04:29N 32°41' E 034°03'1 0.6
2014-Jul-24 03:32N 32°40' E 034°03'0 0.4
2014-Jul-24 02:33N 32°40' E 034°03'0 0.3
2014-Jul-24 01:13N 32°39' E 034°02'0 0.2
2014-Jul-24 00:33N 32°39' E 034°02'0 0.0
2014-Jul-23 23:33N 32°39' E 034°02'0 0.1
2014-Jul-23 22:33N 32°39' E 034°02'0 0.3
2014-Jul-23 21:04N 32°40' E 034°02'0 0.3
2014-Jul-23 20:33N 32°40' E 034°02'0 0.4
2014-Jul-23 19:33N 32°40' E 034°02'0 0.5
2014-Jul-23 18:33N 32°41' E 034°02'1 0.7
2014-Jul-23 17:33N 32°41' E 034°01'1 0.5
2014-Jul-23 16:33N 32°42' E 034°01'4 3.6
2014-Jul-23 15:33N 32°39' E 034°03'5 4.5
2014-Jul-23 14:32N 32°35' E 034°06'1 0.9
2014-Jul-23 13:33N 32°35' E 034°05'1 0.9
2014-Jul-23 12:33N 32°36' E 034°04'1 0.9
2014-Jul-23 11:33N 32°37' E 034°03'1 0.9
2014-Jul-23 10:31N 32°37' E 034°02'1 0.9
2014-Jul-23 09:30N 32°37' E 034°01'1 0.9
2014-Jul-23 08:33N 32°36' E 034°00'1 0.8
2014-Jul-23 07:33N 32°36' E 033°60'1 0.6
2014-Jul-23 06:33N 32°35' E 033°59'1 0.5
2014-Jul-23 05:33N 32°35' E 033°59'0 0.4
2014-Jul-23 04:32N 32°34' E 033°59'0 0.2
2014-Jul-23 03:33N 32°34' E 033°59'0 0.2
2014-Jul-23 02:33N 32°34' E 033°59'0 0.2
2014-Jul-23 01:33N 32°34' E 033°59'0 0.3
2014-Jul-23 00:33N 32°35' E 033°59'0 0.3
2014-Jul-22 23:33N 32°35' E 033°59'0 0.3
2014-Jul-22 22:33N 32°35' E 033°59'0 0.5
2014-Jul-22 21:33N 32°36' E 033°59'1 0.6
2014-Jul-22 20:33N 32°36' E 033°59'1 0.5
2014-Jul-22 19:33N 32°37' E 033°59'1 0.6
2014-Jul-22 18:33N 32°37' E 033°59'1 0.7
2014-Jul-22 17:33N 32°38' E 033°59'1 0.6
2014-Jul-22 16:33N 32°39' E 033°59'1 0.9
2014-Jul-22 15:33N 32°39' E 033°60'9 8.8
2014-Jul-22 14:31N 32°39' E 034°10'1 0.7
2014-Jul-22 13:32N 32°39' E 034°10'7 0.5
2014-Jul-21 22:13N 32°37' E 034°01'0 0.3
2014-Jul-21 21:33N 32°37' E 034°01'  

Dump ship's entire track history